createdAt,value
2018-11-21T00:02:21.986Z,27.13
2018-11-21T00:05:02.798Z,22.17
2018-11-21T00:07:43.391Z,23.97
2018-11-21T00:10:24.058Z,20.67
2018-11-21T00:13:05.047Z,18.13
2018-11-21T00:15:46.045Z,17.00
2018-11-21T00:18:26.928Z,18.27
2018-11-21T00:21:08.092Z,17.13
2018-11-21T00:23:48.325Z,21.10
2018-11-21T00:26:29.476Z,20.10
2018-11-21T00:29:10.254Z,17.67
2018-11-21T00:31:50.974Z,20.27
2018-11-21T00:34:31.802Z,19.53
2018-11-21T00:37:12.436Z,25.50
2018-11-21T00:39:53.826Z,23.00
2018-11-21T00:42:34.337Z,19.70
2018-11-21T00:45:14.962Z,20.57
2018-11-21T00:47:55.938Z,17.13
2018-11-21T00:50:36.303Z,22.70
2018-11-21T00:53:16.949Z,16.20
2018-11-21T00:55:57.765Z,15.53
2018-11-21T00:58:38.787Z,22.73
2018-11-21T01:01:19.987Z,16.33
2018-11-21T01:04:00.919Z,15.23
2018-11-21T01:06:41.909Z,14.90
2018-11-21T01:09:22.966Z,16.77
2018-11-21T01:12:04.075Z,17.13
2018-11-21T01:14:45.096Z,17.27
2018-11-21T01:17:26.009Z,12.67
2018-11-21T01:20:07.113Z,16.63
2018-11-21T01:22:47.567Z,24.87
2018-11-21T01:25:28.659Z,15.97
2018-11-21T01:28:09.904Z,14.20
2018-11-21T01:30:50.964Z,17.30
2018-11-21T01:33:31.518Z,14.97
2018-11-21T01:36:11.834Z,17.90
2018-11-21T01:38:53.017Z,24.17
2018-11-21T01:41:34.094Z,27.63
2018-11-21T01:44:14.844Z,30.00
2018-11-21T01:46:56.082Z,20.30
2018-11-21T01:49:36.884Z,25.63
2018-11-21T01:52:18.009Z,32.33
2018-11-21T01:54:59.062Z,21.63
2018-11-21T01:57:39.410Z,25.13
2018-11-21T02:00:20.311Z,25.57
2018-11-21T02:03:01.416Z,28.03
2018-11-21T02:05:42.554Z,24.80
2018-11-21T02:08:23.397Z,22.50
2018-11-21T02:11:04.522Z,25.10
2018-11-21T02:13:45.422Z,28.33
2018-11-21T02:16:26.329Z,24.87
2018-11-21T02:19:07.356Z,27.90
2018-11-21T02:21:46.272Z,26.27
2018-11-21T02:24:34.152Z,26.10
2018-11-21T02:27:21.972Z,29.20
2018-11-21T02:30:09.840Z,31.67
2018-11-21T02:32:57.573Z,27.10
2018-11-21T02:35:45.310Z,28.80
2018-11-21T02:38:33.050Z,33.40
2018-11-21T02:41:20.761Z,30.00
2018-11-21T02:44:08.517Z,31.07
2018-11-21T02:46:56.254Z,29.97
2018-11-21T02:49:43.962Z,32.47
2018-11-21T02:52:31.695Z,31.43
2018-11-21T02:55:19.409Z,26.30
2018-11-21T02:58:07.150Z,34.03
2018-11-21T03:00:54.863Z,25.47
2018-11-21T03:03:42.595Z,23.63
2018-11-21T03:06:30.308Z,23.60
2018-11-21T03:09:18.040Z,20.23
2018-11-21T03:12:06.915Z,23.57
2018-11-21T03:14:54.623Z,28.40
2018-11-21T03:17:42.354Z,32.80
2018-11-21T03:20:30.066Z,23.00
2018-11-21T03:23:17.824Z,26.10
2018-11-21T03:26:05.544Z,24.50
2018-11-21T03:28:53.283Z,23.00
2018-11-21T03:31:41.002Z,20.27
2018-11-21T03:34:22.066Z,14.50
2018-11-21T03:37:02.372Z,18.37
2018-11-21T03:39:42.826Z,22.90
2018-11-21T03:42:23.472Z,18.23
2018-11-21T03:45:03.712Z,20.57
2018-11-21T03:47:44.266Z,23.37
2018-11-21T03:50:25.339Z,27.40
2018-11-21T03:53:06.532Z,31.23
2018-11-21T03:55:47.316Z,28.93
2018-11-21T03:58:27.807Z,26.47
2018-11-21T04:01:08.455Z,31.87
2018-11-21T04:03:49.588Z,24.43
2018-11-21T04:06:30.424Z,28.07
2018-11-21T04:09:12.452Z,28.00
2018-11-21T04:11:54.545Z,23.83
2018-11-21T04:14:34.255Z,21.13
2018-11-21T04:17:15.327Z,18.43
2018-11-21T04:19:55.956Z,25.20
2018-11-21T04:22:37.199Z,21.70
2018-11-21T04:25:17.413Z,24.80
2018-11-21T04:27:58.278Z,28.30
2018-11-21T04:30:39.276Z,35.90
2018-11-21T04:33:20.119Z,29.67
2018-11-21T04:36:01.223Z,33.37
2018-11-21T04:38:41.503Z,25.03
2018-11-21T04:41:21.762Z,31.13
2018-11-21T04:44:00.639Z,36.20
2018-11-21T04:46:48.350Z,30.07
2018-11-21T04:49:36.076Z,38.57
2018-11-21T04:52:23.784Z,33.03
2018-11-21T04:55:11.510Z,32.30
2018-11-21T04:57:59.240Z,32.97
2018-11-21T05:00:46.948Z,35.73
2018-11-21T05:03:34.677Z,37.70
2018-11-21T05:06:22.388Z,31.87
2018-11-21T05:09:11.275Z,31.00
2018-11-21T05:11:58.988Z,40.90
2018-11-21T05:14:46.713Z,35.00
2018-11-21T05:17:34.416Z,35.57
2018-11-21T05:20:22.143Z,30.63
2018-11-21T05:23:09.868Z,37.77
2018-11-21T05:25:57.573Z,29.93
2018-11-21T05:28:45.299Z,38.80
2018-11-21T05:31:33.012Z,34.47
2018-11-21T05:34:20.738Z,34.10
2018-11-21T05:37:08.831Z,33.50
2018-11-21T05:39:56.563Z,34.23
2018-11-21T05:42:44.267Z,44.33
2018-11-21T05:45:31.996Z,45.57
2018-11-21T05:48:19.724Z,43.37
2018-11-21T05:51:07.428Z,39.00
2018-11-21T05:53:55.155Z,40.47
2018-11-21T05:56:42.860Z,42.37
2018-11-21T05:59:30.663Z,41.03
2018-11-21T06:02:18.478Z,32.93
2018-11-21T06:05:06.416Z,44.67
2018-11-21T06:07:54.115Z,33.03
2018-11-21T06:10:41.844Z,46.40
2018-11-21T06:13:29.576Z,41.10
2018-11-21T06:16:17.283Z,39.97
2018-11-21T06:19:05.087Z,42.67
2018-11-21T06:21:52.790Z,40.97
2018-11-21T06:24:40.519Z,43.87
2018-11-21T06:27:28.227Z,50.10
2018-11-21T06:30:16.075Z,48.80
2018-11-21T06:33:03.785Z,46.13
2018-11-21T06:35:51.508Z,47.80
2018-11-21T06:38:39.231Z,48.27
2018-11-21T06:41:27.053Z,43.93
2018-11-21T06:44:14.785Z,47.33
2018-11-21T06:47:02.491Z,48.50
2018-11-21T06:49:50.211Z,50.80
2018-11-21T06:52:37.920Z,47.43
2018-11-21T06:55:25.654Z,49.20
2018-11-21T06:58:13.360Z,43.70
2018-11-21T07:01:01.192Z,51.40
2018-11-21T07:03:48.984Z,49.03
2018-11-21T07:06:36.687Z,44.67
2018-11-21T07:09:24.454Z,47.43
2018-11-21T07:12:12.131Z,37.50
2018-11-21T07:14:59.858Z,38.77
2018-11-21T07:17:47.574Z,45.77
2018-11-21T07:20:35.299Z,50.90
2018-11-21T07:23:23.005Z,43.37
2018-11-21T07:26:10.742Z,50.93
2018-11-21T07:28:58.468Z,42.87
2018-11-21T07:31:46.176Z,46.87
2018-11-21T07:34:33.900Z,43.00
2018-11-21T07:37:21.607Z,46.30
2018-11-21T07:43:03.543Z,41.23
2018-11-21T07:45:51.268Z,32.63
2018-11-21T07:48:38.972Z,42.00
2018-11-21T07:51:26.697Z,35.53
2018-11-21T07:54:14.412Z,35.43
2018-11-21T08:00:34.164Z,38.00
2018-11-21T08:03:22.898Z,32.63
2018-11-21T08:06:29.800Z,41.50
2018-11-21T08:09:36.675Z,39.70
2018-11-21T08:12:43.578Z,39.20
2018-11-21T08:15:50.492Z,34.53
2018-11-21T08:18:57.371Z,42.37
2018-11-21T08:22:04.271Z,45.70
2018-11-21T08:25:09.258Z,34.83
2018-11-21T08:28:16.136Z,41.30
2018-11-21T08:31:03.863Z,46.07
2018-11-21T08:33:51.568Z,37.33
2018-11-21T08:36:39.315Z,45.53
2018-11-21T08:39:27.001Z,38.93
2018-11-21T08:42:14.731Z,39.77
2018-11-21T08:45:02.442Z,44.07
2018-11-21T08:47:50.171Z,37.47
2018-11-21T08:50:37.904Z,45.23
2018-11-21T08:53:25.611Z,31.43
2018-11-21T08:56:13.342Z,45.37
2018-11-21T08:59:01.048Z,39.90
2018-11-21T09:01:48.776Z,40.20
2018-11-21T09:04:36.484Z,33.77
2018-11-21T09:07:24.211Z,44.80
2018-11-21T09:10:13.119Z,36.57
2018-11-21T09:13:00.850Z,40.07
2018-11-21T09:15:48.579Z,35.10
2018-11-21T09:18:36.283Z,39.87
2018-11-21T09:21:24.010Z,41.37
2018-11-21T09:24:11.717Z,41.53
2018-11-21T09:27:06.281Z,39.57
2018-11-21T09:29:53.985Z,39.33
2018-11-21T09:32:41.732Z,44.57
2018-11-21T09:35:29.512Z,36.93
2018-11-21T09:38:17.243Z,43.10
2018-11-21T09:41:05.180Z,43.50
2018-11-21T09:43:52.888Z,36.60
2018-11-21T09:46:40.618Z,37.87
2018-11-21T09:49:28.339Z,41.00
2018-11-21T09:52:16.076Z,44.80
2018-11-21T09:55:03.799Z,39.10
2018-11-21T09:57:51.529Z,42.87
2018-11-21T10:00:58.672Z,41.77
2018-11-21T10:03:46.376Z,43.27
2018-11-21T10:06:35.427Z,40.27
2018-11-21T10:12:32.548Z,39.97
2018-11-21T10:15:20.268Z,49.50
2018-11-21T10:18:08.096Z,43.27
2018-11-21T10:20:55.832Z,41.47
2018-11-21T10:23:43.564Z,39.97
2018-11-21T10:26:31.357Z,42.80
2018-11-21T10:29:19.064Z,44.50
2018-11-21T10:32:06.790Z,46.27
2018-11-21T10:34:54.496Z,43.37
2018-11-21T10:37:42.224Z,40.87
2018-11-21T10:40:29.932Z,45.83
2018-11-21T10:43:17.659Z,42.33
2018-11-21T10:46:05.465Z,41.03
2018-11-21T10:48:53.197Z,42.47
2018-11-21T10:51:40.918Z,42.80
2018-11-21T10:54:28.621Z,42.00
2018-11-21T10:57:16.351Z,44.73
2018-11-21T11:00:04.520Z,44.43
2018-11-21T11:03:11.414Z,43.17
2018-11-21T11:06:18.295Z,44.73
2018-11-21T11:09:27.889Z,43.37
2018-11-21T11:12:34.786Z,41.20
2018-11-21T11:15:41.667Z,45.20
2018-11-21T11:18:48.569Z,40.90
2018-11-21T11:21:55.462Z,37.80
2018-11-21T11:25:02.339Z,41.70
2018-11-21T11:28:10.295Z,44.30
2018-11-21T11:31:16.239Z,40.30
2018-11-21T11:34:23.151Z,44.43
2018-11-21T11:37:30.054Z,40.90
2018-11-21T11:40:37.284Z,37.97
2018-11-21T11:43:43.836Z,40.80
2018-11-21T11:46:50.740Z,42.73
2018-11-21T11:49:57.615Z,44.20
2018-11-21T11:53:04.509Z,46.53
2018-11-21T11:56:11.384Z,34.90
2018-11-21T11:59:18.281Z,37.07
2018-11-21T12:02:25.237Z,27.40
2018-11-21T12:05:32.114Z,37.37
2018-11-21T12:08:39.015Z,41.23
2018-11-21T12:11:45.890Z,43.07
2018-11-21T12:14:52.784Z,38.37
2018-11-21T12:17:59.682Z,41.17
2018-11-21T12:21:06.556Z,42.37
2018-11-21T12:24:13.453Z,43.63
2018-11-21T12:27:20.354Z,41.13
2018-11-21T12:30:27.760Z,36.37
2018-11-21T12:33:34.656Z,40.77
2018-11-21T12:36:41.535Z,39.50
2018-11-21T12:39:48.436Z,44.67
2018-11-21T12:42:50.851Z,42.87
2018-11-21T12:45:57.727Z,44.53
2018-11-21T12:49:04.629Z,44.33
2018-11-21T12:52:11.506Z,44.53
2018-11-21T12:55:18.416Z,48.13
2018-11-21T12:58:25.314Z,38.67
2018-11-21T13:01:21.155Z,40.80
2018-11-21T13:04:28.058Z,40.80
2018-11-21T13:07:34.957Z,41.63
2018-11-21T13:10:41.827Z,42.77
2018-11-21T13:13:48.725Z,44.37
2018-11-21T13:16:55.600Z,46.00
2018-11-21T13:20:02.499Z,41.30
2018-11-21T13:23:09.448Z,37.43
2018-11-21T13:26:16.324Z,43.37
2018-11-21T13:29:17.222Z,48.23
2018-11-21T13:32:19.546Z,43.57
2018-11-21T13:35:26.446Z,37.20
2018-11-21T13:38:33.575Z,36.43
2018-11-21T13:41:40.463Z,43.30
2018-11-21T13:44:47.363Z,38.80
2018-11-21T13:47:54.271Z,46.77
2018-11-21T13:51:01.143Z,31.83
2018-11-21T13:53:58.504Z,40.13
2018-11-21T13:56:47.652Z,39.70
2018-11-21T13:59:36.802Z,46.63
2018-11-21T14:02:24.520Z,35.37
2018-11-21T14:05:12.244Z,44.47
2018-11-21T14:07:59.982Z,38.47
2018-11-21T14:10:47.680Z,43.20
2018-11-21T14:13:35.415Z,41.20
2018-11-21T14:16:23.127Z,33.33
2018-11-21T14:19:10.860Z,38.80
2018-11-21T14:21:55.820Z,39.83
2018-11-21T14:24:31.759Z,46.27
2018-11-21T14:27:12.143Z,42.17
2018-11-21T14:29:53.209Z,42.27
2018-11-21T14:32:34.057Z,34.93
2018-11-21T14:35:16.199Z,42.53
2018-11-21T14:37:57.108Z,43.90
2018-11-21T14:40:38.219Z,39.67
2018-11-21T14:43:18.912Z,39.73
2018-11-21T14:45:59.405Z,36.90
2018-11-21T14:48:40.335Z,44.40
2018-11-21T14:51:21.406Z,40.30
2018-11-21T14:54:02.635Z,40.53
2018-11-21T14:56:43.571Z,41.70
2018-11-21T14:59:24.838Z,43.03
2018-11-21T15:02:05.829Z,42.23
2018-11-21T15:04:46.197Z,37.63
2018-11-21T15:07:26.540Z,40.93
2018-11-21T15:10:06.975Z,40.97
2018-11-21T15:12:47.328Z,38.63
2018-11-21T15:15:28.933Z,37.30
2018-11-21T15:18:09.536Z,39.00
2018-11-21T15:20:50.751Z,37.23
2018-11-21T15:23:31.660Z,35.93
2018-11-21T15:26:12.853Z,35.13
2018-11-21T15:28:53.562Z,37.83
2018-11-21T15:31:34.636Z,37.43
2018-11-21T15:34:15.206Z,36.63
2018-11-21T15:36:56.239Z,31.50
2018-11-21T15:39:37.000Z,36.20
2018-11-21T15:45:30.027Z,35.83
2018-11-21T15:48:10.981Z,34.10
2018-11-21T15:50:51.356Z,37.20
2018-11-21T15:53:32.435Z,35.80
2018-11-21T15:56:13.303Z,38.90
2018-11-21T15:58:54.422Z,38.63
2018-11-21T16:01:35.286Z,37.57
2018-11-21T16:04:15.780Z,44.90
2018-11-21T16:06:56.076Z,39.87
2018-11-21T16:09:37.110Z,34.93
2018-11-21T16:12:18.074Z,36.13
2018-11-21T16:14:58.347Z,42.20
2018-11-21T16:17:39.365Z,41.10
2018-11-21T16:20:20.240Z,31.30
2018-11-21T16:23:01.029Z,44.23
2018-11-21T16:25:41.556Z,41.90
2018-11-21T16:28:22.495Z,31.60
2018-11-21T16:31:02.912Z,47.23
2018-11-21T16:33:43.556Z,41.30
2018-11-21T16:36:27.230Z,33.90
2018-11-21T16:39:05.588Z,36.07
2018-11-21T16:41:46.716Z,42.40
2018-11-21T16:44:27.623Z,32.17
2018-11-21T16:47:08.968Z,31.77
2018-11-21T16:49:50.433Z,40.07
2018-11-21T16:52:30.805Z,32.00
2018-11-21T16:55:12.152Z,34.63
2018-11-21T16:57:53.312Z,32.37
2018-11-21T17:00:33.715Z,36.37
2018-11-21T17:03:14.805Z,42.77
2018-11-21T17:05:55.740Z,40.63
2018-11-21T17:08:35.991Z,28.23
2018-11-21T17:11:17.081Z,37.13
2018-11-21T17:13:58.185Z,28.77
2018-11-21T17:16:39.242Z,29.07
2018-11-21T17:19:19.754Z,31.77
2018-11-21T17:22:00.676Z,29.63
2018-11-21T17:24:41.321Z,34.00
2018-11-21T17:27:21.732Z,31.57
2018-11-21T17:30:02.393Z,29.77
2018-11-21T17:32:43.584Z,30.53
2018-11-21T17:35:25.013Z,42.00
2018-11-21T17:38:05.813Z,33.73
2018-11-21T17:40:46.990Z,34.90
2018-11-21T17:43:27.703Z,42.20
2018-11-21T17:46:09.510Z,29.03
2018-11-21T17:48:50.029Z,27.47
2018-11-21T17:51:30.456Z,27.43
